Time;durP1;ratioP1;P1;durP2;ratioP2;P2;SDS_P1;SDS_P2;PMS_P1;PMS_P2;Temp;Humidity;BMP_temperature;BMP_pressure;BME280_temperature;BME280_humidity;BME280_pressure;Samples;Min_cycle;Max_cycle;Signal;HPM_P1;HPM_P2
2022/08/26 00:02:03;;;;;;;5.00;4.70;;;24.20;47.60;;;;;;20963;6780;117214;-88
2022/08/26 00:04:39;;;;;;;5.23;4.83;;;23.80;48.00;;;;;;20749;6723;305188;-88
2022/08/26 00:07:14;;;;;;;5.25;4.95;;;24.00;48.30;;;;;;20587;6723;316817;-88
2022/08/26 00:09:50;;;;;;;4.80;4.57;;;24.20;48.00;;;;;;20975;6725;116714;-88
2022/08/26 00:12:25;;;;;;;4.77;4.47;;;24.10;48.00;;;;;;21300;6588;116176;-88
2022/08/26 00:15:02;;;;;;;4.67;4.37;;;23.50;48.70;;;;;;21071;6699;115816;-88
2022/08/26 00:17:37;;;;;;;5.07;4.73;;;23.50;48.90;;;;;;20666;6699;325324;-88
2022/08/26 00:20:13;;;;;;;5.20;4.87;;;23.80;49.80;;;;;;20794;6705;306018;-89
2022/08/26 00:22:49;;;;;;;5.03;4.80;;;24.30;48.50;;;;;;20815;6705;305903;-88
2022/08/26 00:25:25;;;;;;;5.15;4.85;;;24.30;49.20;;;;;;20803;6705;308278;-89
2022/08/26 00:28:01;;;;;;;5.60;5.10;;;24.60;47.30;;;;;;20820;6705;306319;-88
2022/08/26 00:30:46;;;;;;;5.23;4.93;;;24.60;47.30;;;;;;21017;6705;119771;-88
2022/08/26 00:33:12;;;;;;;7.53;5.40;;;24.30;47.60;;;;;;21031;6705;117365;-88
2022/08/26 00:35:48;;;;;;;5.43;5.13;;;23.90;48.10;;;;;;20996;6705;118744;-89
2022/08/26 00:38:23;;;;;;;5.67;5.30;;;23.50;48.50;;;;;;20808;6705;280155;-88
2022/08/26 00:40:59;;;;;;;5.50;5.20;;;23.70;48.80;;;;;;21073;6705;117153;-88
2022/08/26 00:43:34;;;;;;;5.57;5.20;;;23.50;48.60;;;;;;20864;6705;274983;-88
2022/08/26 00:46:14;;;;;;;5.25;4.95;;;23.90;48.30;;;;;;20735;6705;309763;-88
2022/08/26 00:48:52;;;;;;;5.43;5.13;;;23.90;48.30;;;;;;20958;6761;117113;-88
2022/08/26 00:51:28;;;;;;;5.20;4.90;;;23.70;48.30;;;;;;20810;6707;307824;-88
2022/08/26 00:54:04;;;;;;;5.17;4.97;;;23.70;48.70;;;;;;21022;6705;116951;-88
2022/08/26 00:56:49;;;;;;;4.60;4.40;;;23.50;48.70;;;;;;20960;6690;117656;-87
2022/08/26 00:59:25;;;;;;;5.10;4.90;;;23.10;49.10;;;;;;21082;6688;117215;-88
2022/08/26 01:02:00;;;;;;;5.20;4.90;;;22.80;49.50;;;;;;21083;6688;117327;-88
2022/08/26 01:04:35;;;;;;;5.40;5.00;;;22.70;50.00;;;;;;20843;6688;276556;-87
2022/08/26 01:07:11;;;;;;;5.90;5.50;;;23.00;50.10;;;;;;21055;6576;303461;-88
2022/08/26 01:09:48;;;;;;;6.00;5.60;;;23.40;49.50;;;;;;20324;6576;305507;31
2022/08/26 01:37:06;;;;;;;5.27;4.97;;;21.80;50.70;;;;;;21184;6601;90447;-87
2022/08/26 01:39:31;;;;;;;5.70;5.40;;;21.70;51.00;;;;;;20418;6880;305924;-87
2022/08/26 01:41:57;;;;;;;6.30;6.00;;;22.70;51.20;;;;;;20435;6881;279678;-87
2022/08/26 01:44:23;;;;;;;5.83;5.53;;;22.70;51.20;;;;;;20632;6881;117659;-88
2022/08/26 01:46:48;;;;;;;5.53;5.17;;;22.70;50.70;;;;;;20640;6881;118264;-88
2022/08/26 01:49:14;;;;;;;6.87;6.37;;;22.50;50.80;;;;;;20431;6881;309375;-87
2022/08/26 01:51:39;;;;;;;5.87;5.57;;;22.70;50.80;;;;;;20649;6881;117635;-88
2022/08/26 01:54:05;;;;;;;5.90;5.50;;;22.70;50.60;;;;;;20433;6881;293454;-87
2022/08/26 01:56:30;;;;;;;6.50;5.90;;;22.90;50.60;;;;;;20436;6874;300146;-87
2022/08/26 01:58:56;;;;;;;6.30;5.80;;;23.10;50.00;;;;;;20673;6874;117293;-87
2022/08/26 02:01:22;;;;;;;5.37;5.03;;;23.00;50.00;;;;;;20665;6874;117457;-87
2022/08/26 02:03:52;;;;;;;6.18;5.78;;;22.70;50.40;;;;;;20453;6874;282982;-87
2022/08/26 02:06:19;;;;;;;5.50;5.20;;;22.90;50.60;;;;;;20641;6874;144662;-87
2022/08/26 02:08:44;;;;;;;5.67;5.37;;;22.90;50.60;;;;;;20674;6874;117814;-88
2022/08/26 02:11:10;;;;;;;5.67;5.27;;;22.60;50.80;;;;;;20669;6874;119755;-88
2022/08/26 02:13:52;;;;;;;6.30;5.80;;;22.50;51.10;;;;;;20466;6874;281343;-88
2022/08/26 02:16:18;;;;;;;6.17;5.80;;;22.70;51.10;;;;;;20440;6874;298060;-88
2022/08/26 02:18:45;;;;;;;5.50;5.20;;;23.00;50.20;;;;;;20670;6874;117661;-88
2022/08/26 02:21:11;;;;;;;5.67;5.30;;;22.90;50.10;;;;;;20671;6874;116393;-88
2022/08/26 02:23:40;;;;;;;5.70;5.40;;;22.40;51.00;;;;;;20671;6874;117499;-88
2022/08/26 02:26:09;;;;;;;6.10;5.70;;;22.40;50.90;;;;;;20454;6874;309369;-88
2022/08/26 02:28:34;;;;;;;6.00;5.70;;;22.60;50.80;;;;;;20629;6874;119506;-88
2022/08/26 02:31:00;;;;;;;6.30;5.90;;;22.50;50.70;;;;;;20660;6874;118522;-88
2022/08/26 02:33:27;;;;;;;6.28;5.78;;;22.50;51.60;;;;;;20463;6874;280552;-88
2022/08/26 02:35:53;;;;;;;6.00;5.70;;;22.50;51.00;;;;;;20450;6874;310261;-88
2022/08/26 02:38:18;;;;;;;5.75;5.45;;;22.80;50.40;;;;;;20639;6874;118358;-88
2022/08/26 02:40:44;;;;;;;6.32;5.93;;;22.70;50.30;;;;;;20464;6873;282697;-90
2022/08/26 02:43:11;;;;;;;6.05;5.75;;;22.60;50.40;;;;;;20680;6873;117485;-88
2022/08/26 02:45:38;;;;;;;6.00;5.60;;;22.60;50.40;;;;;;20462;6873;280559;-88
2022/08/26 02:48:03;;;;;;;6.37;5.87;;;22.70;50.60;;;;;;20465;6871;279704;-88
2022/08/26 02:50:28;;;;;;;5.80;5.50;;;22.90;50.30;;;;;;20350;6872;339072;-88
2022/08/26 02:52:54;;;;;;;6.27;5.80;;;23.10;49.90;;;;;;20472;6872;306973;-88
2022/08/26 02:55:19;;;;;;;5.62;5.32;;;23.20;49.50;;;;;;20684;6872;117383;-88
2022/08/26 02:57:45;;;;;;;6.07;5.77;;;23.00;49.80;;;;;;20463;6872;309288;-88
2022/08/26 03:00:12;;;;;;;6.05;5.65;;;23.00;49.80;;;;;;20661;6872;118412;-88
2022/08/26 03:02:38;;;;;;;5.43;5.13;;;22.80;50.10;;;;;;20666;6872;118276;-88
2022/08/26 03:05:04;;;;;;;5.60;5.30;;;22.20;50.90;;;;;;20676;6872;118033;-88
2022/08/26 03:07:32;;;;;;;6.20;5.90;;;22.40;51.10;;;;;;20464;6872;283701;-88
2022/08/26 03:09:58;;;;;;;5.83;5.47;;;22.40;51.10;;;;;;20672;6872;117917;-88
2022/08/26 03:12:23;;;;;;;6.00;5.70;;;22.40;51.00;;;;;;20428;6872;338594;-88
2022/08/26 03:14:49;;;;;;;6.18;5.68;;;22.50;51.10;;;;;;20681;6872;118078;-88
2022/08/26 03:17:14;;;;;;;5.75;5.37;;;22.40;51.10;;;;;;20675;6872;122359;-88
2022/08/26 03:19:42;;;;;;;5.87;5.55;;;22.10;51.40;;;;;;20680;6872;117937;-88
2022/08/26 03:22:09;;;;;;;6.10;5.57;;;21.90;51.80;;;;;;20673;6872;118198;-88
2022/08/26 03:24:34;;;;;;;6.20;5.80;;;21.70;52.10;;;;;;20655;6873;118439;-88
2022/08/26 03:27:00;;;;;;;5.78;5.47;;;21.50;52.30;;;;;;20675;6873;117922;-88
2022/08/26 03:32:13;;;;;;;6.22;5.87;;;21.70;52.80;;;;;;20450;6873;309478;-88
2022/08/26 03:34:38;;;;;;;6.20;5.90;;;21.70;52.70;;;;;;20456;6873;339010;-88
2022/08/26 03:37:04;;;;;;;6.40;6.00;;;22.20;52.00;;;;;;20444;6873;309717;-88
2022/08/26 03:39:29;;;;;;;7.35;6.85;;;22.50;51.30;;;;;;20463;6873;280624;-88
2022/08/26 03:41:56;;;;;;;7.10;6.50;;;22.70;50.60;;;;;;20471;6873;282097;-88
2022/08/26 03:44:22;;;;;;;6.10;5.70;;;22.90;50.30;;;;;;20442;6873;338678;-88
2022/08/26 03:46:48;;;;;;;6.53;6.07;;;22.70;50.50;;;;;;20678;6873;117705;-88
2022/08/26 03:49:13;;;;;;;6.93;6.50;;;22.70;50.50;;;;;;20466;6873;309624;-87
2022/08/26 03:51:39;;;;;;;6.32;5.93;;;22.60;50.70;;;;;;20691;6873;117487;-87
2022/08/26 03:54:05;;;;;;;6.93;6.33;;;22.40;50.90;;;;;;20472;6873;305925;-87
2022/08/26 03:56:32;;;;;;;6.62;6.12;;;22.40;50.90;;;;;;20656;6873;119876;-87
2022/08/26 03:58:59;;;;;;;6.30;6.00;;;22.30;51.00;;;;;;20680;6871;117856;-87
2022/08/26 04:01:26;;;;;;;6.43;6.03;;;22.00;51.40;;;;;;20674;6872;117673;-87
2022/08/26 04:03:58;;;;;;;6.10;5.70;;;21.80;51.70;;;;;;20680;6872;117708;-88
2022/08/26 04:06:30;;;;;;;6.53;6.13;;;21.60;52.00;;;;;;20443;6872;309482;-87
2022/08/26 04:08:59;;;;;;;6.60;6.20;;;21.90;52.00;;;;;;20466;6872;280977;-87
2022/08/26 04:11:25;;;;;;;7.23;6.73;;;22.20;51.40;;;;;;20463;6872;310117;-87
2022/08/26 04:13:50;;;;;;;7.35;6.85;;;22.40;50.90;;;;;;20455;6872;312666;-87
2022/08/26 04:16:15;;;;;;;6.60;6.30;;;22.60;50.70;;;;;;20448;6872;279297;-88
2022/08/26 04:18:41;;;;;;;7.40;6.90;;;22.60;50.40;;;;;;20448;6872;294702;-87
2022/08/26 04:21:08;;;;;;;6.53;6.17;;;22.60;50.40;;;;;;20673;6872;118336;-87
2022/08/26 04:23:34;;;;;;;6.50;6.10;;;22.30;50.80;;;;;;20673;6872;117973;-87
2022/08/26 04:26:00;;;;;;;7.20;6.33;;;21.90;51.50;;;;;;20658;6872;120398;-88
2022/08/26 04:28:25;;;;;;;7.00;6.60;;;21.60;52.10;;;;;;20431;6872;281661;-87
2022/08/26 04:30:50;;;;;;;7.30;6.90;;;21.70;52.40;;;;;;20468;6872;292803;-87
2022/08/26 04:33:16;;;;;;;7.47;7.07;;;22.00;51.90;;;;;;20471;6872;309898;-87
2022/08/26 04:35:42;;;;;;;7.40;6.90;;;22.20;51.30;;;;;;20471;6873;284334;-87
2022/08/26 04:38:07;;;;;;;7.22;6.72;;;22.40;51.20;;;;;;20679;6873;117681;-87
2022/08/26 04:40:33;;;;;;;7.50;7.00;;;22.10;51.30;;;;;;20453;6873;278845;-87
2022/08/26 04:42:58;;;;;;;7.25;6.62;;;22.10;51.50;;;;;;20681;6873;117499;-87
2022/08/26 04:45:25;;;;;;;6.27;5.97;;;21.90;51.60;;;;;;20473;6873;280124;-87
2022/08/26 04:47:53;;;;;;;7.05;6.65;;;22.00;51.80;;;;;;20457;6873;311695;-87
2022/08/26 04:50:19;;;;;;;7.00;6.60;;;22.30;51.30;;;;;;20438;6873;279616;-87
2022/08/26 04:52:44;;;;;;;7.35;6.90;;;22.50;50.60;;;;;;20459;6873;279319;-87
2022/08/26 04:55:09;;;;;;;6.97;6.47;;;22.50;50.60;;;;;;20677;6873;119711;-87
2022/08/26 04:57:35;;;;;;;6.78;6.35;;;22.30;50.80;;;;;;20679;6873;117970;-88
2022/08/26 05:00:01;;;;;;;7.10;6.70;;;21.90;51.40;;;;;;20469;6873;282364;-88
2022/08/26 05:02:26;;;;;;;7.43;6.93;;;22.00;51.60;;;;;;20433;6873;331337;-88
2022/08/26 05:04:52;;;;;;;7.07;6.57;;;22.20;51.20;;;;;;20679;6873;117988;-88
2022/08/26 05:07:17;;;;;;;6.80;6.40;;;22.10;51.40;;;;;;20464;6873;280431;-88
2022/08/26 05:09:44;;;;;;;6.65;6.30;;;22.10;51.60;;;;;;20463;6871;334717;-87
2022/08/26 05:12:09;;;;;;;6.63;6.30;;;22.30;51.10;;;;;;20678;6872;117780;-88
2022/08/26 05:14:34;;;;;;;6.68;6.18;;;22.10;51.20;;;;;;20662;6872;120385;-88
2022/08/26 05:17:00;;;;;;;6.85;6.47;;;21.80;51.60;;;;;;20460;6872;312058;-89
2022/08/26 05:19:26;;;;;;;6.82;6.43;;;21.90;52.30;;;;;;20676;6872;117407;-91
2022/08/26 05:21:52;;;;;;;7.32;6.65;;;21.80;51.90;;;;;;20450;6872;319658;-88
2022/08/26 05:24:17;;;;;;;7.07;6.62;;;21.90;51.60;;;;;;20663;6872;117918;-93
2022/08/26 05:26:43;;;;;;;7.30;6.90;;;21.80;51.60;;;;;;20481;6872;280630;-91
2022/08/26 05:29:08;;;;;;;8.10;7.53;;;21.90;51.60;;;;;;20476;6872;332738;-88
2022/08/26 05:31:34;;;;;;;6.93;6.23;;;22.20;51.30;;;;;;20682;6872;118345;-88
2022/08/26 05:34:01;;;;;;;7.00;6.57;;;22.00;51.30;;;;;;20682;6872;118400;-88
2022/08/26 05:36:27;;;;;;;7.50;7.10;;;21.80;51.90;;;;;;20453;6872;309335;-88
2022/08/26 05:38:53;;;;;;;6.73;6.43;;;21.80;51.90;;;;;;20685;6872;117622;-88
2022/08/26 05:41:18;;;;;;;7.53;7.03;;;21.80;51.90;;;;;;20495;6872;309320;-87
2022/08/26 05:43:44;;;;;;;6.57;6.28;;;21.80;51.80;;;;;;20674;6872;117417;-88
2022/08/26 05:46:10;;;;;;;6.87;6.47;;;21.50;52.20;;;;;;20680;6872;117367;-86
2022/08/26 05:48:36;;;;;;;6.97;6.47;;;21.50;52.20;;;;;;20552;6873;118631;-87
2022/08/26 05:51:04;;;;;;;7.37;6.87;;;21.40;52.60;;;;;;20673;6873;117310;-87
2022/08/26 05:53:31;;;;;;;7.57;7.07;;;21.20;52.90;;;;;;20455;6873;309942;-87
2022/08/26 05:55:57;;;;;;;7.20;6.80;;;21.40;53.00;;;;;;20458;6873;293541;-86
2022/08/26 05:58:22;;;;;;;7.82;7.32;;;21.80;52.50;;;;;;20440;6873;309108;-87
2022/08/26 06:01:09;;;;;;;6.82;6.53;;;22.10;51.70;;;;;;20677;6873;117723;-87
2022/08/26 06:03:34;;;;;;;6.93;6.30;;;21.70;52.20;;;;;;20670;6873;118418;-87
2022/08/26 06:06:06;;;;;;;6.33;6.03;;;21.60;52.10;;;;;;20662;6873;117628;-87
2022/08/26 06:08:31;;;;;;;6.90;6.40;;;21.40;52.60;;;;;;20653;6873;117534;-87
2022/08/26 06:10:57;;;;;;;7.82;7.43;;;21.30;53.00;;;;;;20695;6873;74011;-87
2022/08/26 06:13:22;;;;;;;8.40;7.50;;;21.20;53.10;;;;;;20458;6873;283339;-87
2022/08/26 06:15:49;;;;;;;7.60;7.20;;;21.40;52.90;;;;;;20670;6873;117547;-87
2022/08/26 06:18:15;;;;;;;7.30;6.60;;;21.50;52.80;;;;;;20663;6873;127260;-87
2022/08/26 06:20:43;;;;;;;7.13;6.60;;;21.30;53.40;;;;;;20672;6871;117692;-87
2022/08/26 06:25:52;;;;;;;7.60;7.00;;;21.30;53.70;;;;;;20464;6872;309757;-87
2022/08/26 06:28:18;;;;;;;7.37;6.70;;;21.80;53.50;;;;;;20662;6872;118348;-87
2022/08/26 06:30:44;;;;;;;7.50;6.90;;;21.80;53.50;;;;;;20463;6872;341851;-87
2022/08/26 06:33:09;;;;;;;7.30;6.90;;;22.20;53.20;;;;;;20460;6872;309841;-87
2022/08/26 06:35:38;;;;;;;7.33;6.80;;;22.70;52.10;;;;;;20470;6872;290018;-87
2022/08/26 06:38:04;;;;;;;6.43;6.03;;;23.30;51.80;;;;;;20671;6872;117421;-87
2022/08/26 06:40:29;;;;;;;7.17;6.57;;;23.40;51.80;;;;;;20660;6872;120157;-87
2022/08/26 06:42:55;;;;;;;7.03;6.53;;;23.40;51.90;;;;;;20461;6872;309389;-87
2022/08/26 06:45:20;;;;;;;7.28;6.87;;;23.70;50.80;;;;;;20464;6872;311144;-87
2022/08/26 06:47:46;;;;;;;7.78;7.05;;;24.10;49.90;;;;;;20469;6872;279388;-86
2022/08/26 06:50:12;;;;;;;7.50;6.90;;;24.60;48.70;;;;;;20452;6872;309880;-87
2022/08/26 06:52:38;;;;;;;6.50;6.13;;;24.60;48.70;;;;;;20678;6872;117652;-87
2022/08/26 06:55:03;;;;;;;7.37;6.83;;;24.60;48.80;;;;;;20674;6872;118512;-87
2022/08/26 06:57:31;;;;;;;7.47;6.80;;;24.20;49.30;;;;;;20676;6872;117753;-87
2022/08/26 06:59:55;;;;;;;6.87;6.43;;;24.30;49.40;;;;;;20161;6873;344518;-87
2022/08/26 07:02:22;;;;;;;8.40;7.10;;;24.50;49.60;;;;;;20378;6873;280553;-87
2022/08/26 07:04:46;;;;;;;6.93;6.43;;;24.90;48.30;;;;;;20684;6873;117636;-87
2022/08/26 07:07:13;;;;;;;6.90;6.40;;;25.00;48.40;;;;;;20478;6873;280621;-86
2022/08/26 07:09:39;;;;;;;6.37;5.87;;;25.20;48.70;;;;;;20678;6873;117400;-87
2022/08/26 07:12:05;;;;;;;7.03;6.62;;;25.20;48.00;;;;;;20470;6873;314169;-87
2022/08/26 07:14:31;;;;;;;7.00;6.50;;;25.50;47.20;;;;;;20646;6873;117610;-87
2022/08/26 07:17:00;;;;;;;6.50;5.97;;;25.60;47.40;;;;;;20674;6873;117962;-87
2022/08/26 07:19:22;;;;;;;6.32;5.93;;;25.50;47.60;;;;;;20461;6873;308786;-88
2022/08/26 07:21:48;;;;;;;6.85;6.45;;;26.20;46.40;;;;;;20475;6873;309339;-87
2022/08/26 07:38:06;;;;;;;6.60;6.10;;;27.40;43.50;;;;;;20892;6601;276192;-88
2022/08/26 07:40:32;;;;;;;6.45;5.95;;;27.50;43.40;;;;;;20871;6795;117138;-88
2022/08/26 07:42:57;;;;;;;6.27;5.87;;;27.40;43.90;;;;;;20799;6820;117479;-88
2022/08/26 07:45:23;;;;;;;6.60;6.20;;;27.10;44.40;;;;;;20598;6820;305736;-88
2022/08/26 07:47:48;;;;;;;6.43;6.03;;;27.20;43.60;;;;;;20409;6887;281019;-88
2022/08/26 07:50:14;;;;;;;6.27;5.77;;;27.40;43.50;;;;;;20613;6887;117596;-88
2022/08/26 07:52:41;;;;;;;6.10;5.73;;;27.50;43.80;;;;;;20423;6887;311057;-88
2022/08/26 07:55:05;;;;;;;5.60;5.30;;;27.70;43.10;;;;;;20627;6887;117884;-88
2022/08/26 07:57:30;;;;;;;5.40;5.10;;;27.80;43.60;;;;;;20626;6887;117583;-88
2022/08/26 07:59:56;;;;;;;6.03;5.63;;;27.70;43.90;;;;;;20632;6887;117505;-88
2022/08/26 08:02:21;;;;;;;6.07;5.50;;;27.70;43.90;;;;;;20362;6887;310848;-88
2022/08/26 08:04:48;;;;;;;5.83;5.43;;;28.00;42.90;;;;;;20583;6902;118653;-88
2022/08/26 08:07:14;;;;;;;6.00;5.50;;;28.20;42.80;;;;;;20583;6903;117754;-89
2022/08/26 08:09:39;;;;;;;5.82;5.40;;;28.20;42.80;;;;;;20467;6874;312156;-89
2022/08/26 08:12:05;;;;;;;5.47;5.12;;;28.60;42.60;;;;;;20422;6887;310508;-88
2022/08/26 08:14:30;;;;;;;5.00;4.70;;;29.00;41.90;;;;;;20405;6887;319347;-88
2022/08/26 08:16:57;;;;;;;5.40;5.00;;;29.40;40.40;;;;;;20436;6883;279190;-88
2022/08/26 08:19:23;;;;;;;5.50;5.20;;;29.90;40.80;;;;;;20654;6883;117646;-88
2022/08/26 08:21:49;;;;;;;5.37;4.97;;;30.20;39.80;;;;;;20436;6883;280538;-90
2022/08/26 08:24:14;;;;;;;5.30;4.90;;;30.20;39.80;;;;;;20629;6883;117938;-88
2022/08/26 08:26:40;;;;;;;5.93;5.40;;;30.40;39.30;;;;;;20435;6883;339398;-89
2022/08/26 08:29:07;;;;;;;5.23;4.90;;;30.50;38.50;;;;;;20644;6883;117478;-89
2022/08/26 08:31:31;;;;;;;5.30;4.90;;;30.50;38.90;;;;;;20646;6883;117634;-89
2022/08/26 08:33:57;;;;;;;5.40;5.00;;;30.30;38.90;;;;;;20431;6883;292798;-89
2022/08/26 08:36:23;;;;;;;5.50;5.10;;;30.30;38.90;;;;;;20394;6883;304366;-89
2022/08/26 08:38:49;;;;;;;5.20;4.80;;;30.50;38.80;;;;;;20646;6883;118319;-89
2022/08/26 08:41:34;;;;;;;5.30;4.93;;;30.30;38.70;;;;;;20440;6883;310254;-88
2022/08/26 08:43:59;;;;;;;5.47;5.17;;;30.30;38.80;;;;;;20437;6883;280138;-90
2022/08/26 08:46:25;;;;;;;5.40;4.93;;;30.30;38.10;;;;;;20413;6883;309550;-89
2022/08/26 08:48:55;;;;;;;5.30;4.80;;;30.40;37.80;;;;;;20431;6881;341870;-89
2022/08/26 08:51:38;;;;;;;5.33;4.93;;;30.40;38.10;;;;;;20632;6882;118392;-88
2022/08/26 08:54:03;;;;;;;5.20;4.90;;;30.20;38.50;;;;;;20657;6882;66676;-88
2022/08/26 08:56:32;;;;;;;8.07;4.80;;;29.90;39.10;;;;;;20415;6882;310175;-88
2022/08/26 08:59:21;;;;;;;5.00;4.70;;;30.00;39.40;;;;;;20632;6882;117792;-88
2022/08/26 09:01:50;;;;;;;5.33;4.93;;;30.00;39.60;;;;;;20646;6882;119681;-88
2022/08/26 09:04:45;;;;;;;5.00;4.70;;;30.00;39.60;;;;;;20418;6882;310659;-88
2022/08/26 09:07:17;;;;;;;5.30;4.77;;;30.30;39.30;;;;;;20441;6882;283952;-87
2022/08/26 09:09:50;;;;;;;6.37;4.82;;;31.10;36.90;;;;;;20212;6882;330289;-90
2022/08/26 09:12:19;;;;;;;5.27;4.87;;;31.00;37.20;;;;;;20624;6882;117621;-88
2022/08/26 09:14:45;;;;;;;5.17;4.77;;;31.00;37.20;;;;;;20409;6882;311755;-88
2022/08/26 09:17:20;;;;;;;5.12;4.72;;;31.10;37.00;;;;;;20430;6882;339859;-88
2022/08/26 09:19:52;;;;;;;4.90;4.57;;;31.40;36.80;;;;;;20631;6882;117487;-88
2022/08/26 09:22:28;;;;;;;5.35;4.80;;;31.40;36.90;;;;;;20404;6882;308188;-89
2022/08/26 09:24:55;;;;;;;5.37;4.90;;;31.60;36.10;;;;;;20394;6882;339445;-89
2022/08/26 09:27:34;;;;;;;5.13;4.73;;;31.90;37.10;;;;;;20644;6883;117517;-88
2022/08/26 09:29:59;;;;;;;5.72;4.93;;;32.00;37.10;;;;;;20471;6883;311866;-89
2022/08/26 09:32:25;;;;;;;4.93;4.63;;;32.20;35.60;;;;;;20677;6883;116983;-88
2022/08/26 09:34:54;;;;;;;5.20;4.78;;;32.20;35.70;;;;;;20485;6883;308844;-89
2022/08/26 09:37:39;;;;;;;5.77;5.23;;;32.40;35.70;;;;;;20317;6883;118245;-88
2022/08/26 09:40:14;;;;;;;7.97;4.60;;;32.50;35.70;;;;;;20688;6883;119692;-89
2022/08/26 09:42:40;;;;;;;4.60;4.30;;;32.40;35.70;;;;;;20466;6883;311666;-88
2022/08/26 09:45:09;;;;;;;6.83;4.83;;;32.70;35.90;;;;;;20652;6883;116875;-89
2022/08/26 09:47:44;;;;;;;5.23;4.80;;;32.80;35.80;;;;;;20421;6883;309783;-89
2022/08/26 09:50:30;;;;;;;4.93;4.53;;;33.40;34.70;;;;;;20442;6883;309999;-89
2022/08/26 09:53:20;;;;;;;5.20;4.80;;;33.40;34.60;;;;;;20324;6883;310654;-88
2022/08/26 09:55:44;;;;;;;5.50;5.00;;;33.70;34.30;;;;;;20435;6883;344137;-88
2022/08/26 09:58:14;;;;;;;4.83;4.53;;;34.00;34.10;;;;;;20646;6883;122999;-88
2022/08/26 10:00:42;;;;;;;6.20;4.80;;;33.90;34.40;;;;;;20437;6881;280994;-89
2022/08/26 10:03:08;;;;;;;5.43;5.00;;;33.90;34.00;;;;;;20397;6882;280846;-88
2022/08/26 10:05:41;;;;;;;5.33;4.93;;;34.30;32.80;;;;;;20425;6882;309571;-88
2022/08/26 10:08:20;;;;;;;6.77;4.93;;;34.30;32.80;;;;;;20640;6882;119610;-89
2022/08/26 10:10:45;;;;;;;5.23;4.90;;;34.10;33.00;;;;;;20575;6882;118539;-88
2022/08/26 10:13:27;;;;;;;4.80;4.40;;;33.90;33.50;;;;;;20430;6882;309939;-89
2022/08/26 10:15:53;;;;;;;8.67;4.47;;;33.90;32.90;;;;;;20631;6882;117500;-89
2022/08/26 10:18:23;;;;;;;4.93;4.73;;;33.90;33.30;;;;;;20605;6882;117890;-88
2022/08/26 10:20:50;;;;;;;4.80;4.50;;;33.70;33.50;;;;;;20422;6882;309863;-88
2022/08/26 10:23:16;;;;;;;4.53;4.23;;;33.90;33.20;;;;;;20419;6882;310117;-89
2022/08/26 10:25:45;;;;;;;5.10;4.70;;;34.10;32.80;;;;;;20443;6882;309369;-89
2022/08/26 10:28:26;;;;;;;4.95;4.53;;;34.40;32.80;;;;;;20445;6882;314623;-89
2022/08/26 10:30:53;;;;;;;4.83;4.40;;;34.50;31.90;;;;;;20429;6882;310628;-89
2022/08/26 10:33:18;;;;;;;5.10;4.63;;;34.70;31.50;;;;;;20419;6882;280554;-89
2022/08/26 10:35:50;;;;;;;5.97;5.30;;;34.70;31.00;;;;;;20657;6882;121432;-89
2022/08/26 10:38:15;;;;;;;6.23;5.00;;;34.40;31.10;;;;;;20624;6883;117527;-90
2022/08/26 10:41:08;;;;;;;5.20;4.70;;;33.90;31.90;;;;;;20640;6883;118117;-89
2022/08/26 10:43:47;;;;;;;5.90;5.03;;;33.40;32.60;;;;;;20430;6883;312567;-89
2022/08/26 10:46:13;;;;;;;7.37;5.12;;;33.40;32.90;;;;;;20581;6883;118527;-88
2022/08/26 10:48:47;;;;;;;10.63;5.07;;;33.20;33.10;;;;;;20641;6883;117701;-89
2022/08/26 10:51:13;;;;;;;5.83;5.30;;;33.00;33.60;;;;;;20338;6878;312176;-89
2022/08/26 10:53:55;;;;;;;6.57;5.63;;;33.00;34.00;;;;;;20645;6878;117975;-88
2022/08/26 10:56:47;;;;;;;11.07;6.23;;;33.00;33.80;;;;;;20635;6878;118043;-89
2022/08/26 10:59:49;;;;;;;7.87;6.20;;;32.80;34.00;;;;;;20659;6878;120713;-89
2022/08/26 11:02:39;;;;;;;5.80;5.40;;;32.50;34.40;;;;;;20641;6878;117523;-89
2022/08/26 11:05:04;;;;;;;6.93;5.67;;;32.20;35.00;;;;;;20648;6878;118005;-88
2022/08/26 11:07:39;;;;;;;9.20;5.63;;;32.20;35.00;;;;;;20633;6878;117400;-89
2022/08/26 11:10:19;;;;;;;8.10;5.40;;;32.30;34.50;;;;;;20648;6877;117481;-89
2022/08/26 11:12:54;;;;;;;10.00;6.20;;;32.20;34.50;;;;;;20664;6877;118492;-89
2022/08/26 11:15:23;;;;;;;7.90;5.70;;;32.30;34.50;;;;;;20660;6878;117502;-89
2022/08/26 11:17:49;;;;;;;7.90;5.97;;;32.50;34.40;;;;;;20457;6878;309819;-88
2022/08/26 11:20:21;;;;;;;6.57;5.80;;;32.80;33.20;;;;;;20655;6878;121110;-88
2022/08/26 11:22:50;;;;;;;8.03;5.47;;;33.00;33.00;;;;;;20461;6878;310665;-89
2022/08/26 11:25:19;;;;;;;7.50;5.65;;;33.30;32.50;;;;;;20454;6878;339493;-89
2022/08/26 11:27:49;;;;;;;7.47;5.75;;;33.70;32.70;;;;;;20423;6878;339082;-89
2022/08/26 11:30:14;;;;;;;8.77;5.70;;;34.10;31.40;;;;;;20648;6878;118314;-89
2022/08/26 11:32:39;;;;;;;9.45;5.12;;;34.00;31.30;;;;;;20408;6878;280493;-89
2022/08/26 11:35:16;;;;;;;5.47;5.00;;;34.20;31.00;;;;;;20672;6878;117897;-89
2022/08/26 11:37:54;;;;;;;5.50;5.00;;;34.10;30.90;;;;;;20448;6878;311053;-89
2022/08/26 11:40:19;;;;;;;5.53;5.03;;;34.30;31.60;;;;;;20397;6878;309631;-89
2022/08/26 11:42:50;;;;;;;7.87;5.33;;;34.50;30.00;;;;;;20432;6878;294285;-89
2022/08/26 11:45:22;;;;;;;6.87;5.13;;;34.70;30.20;;;;;;20660;6878;117444;-89
2022/08/26 11:47:47;;;;;;;5.83;5.10;;;34.50;30.70;;;;;;20615;6878;120457;-89
2022/08/26 11:50:14;;;;;;;6.37;5.20;;;34.40;31.20;;;;;;20433;6878;309299;-89
2022/08/26 11:52:39;;;;;;;4.90;4.60;;;34.60;30.50;;;;;;20636;6878;117683;-89
2022/08/26 11:55:08;;;;;;;4.57;4.20;;;34.50;30.40;;;;;;20663;6878;117605;-89
2022/08/26 11:57:33;;;;;;;4.67;3.63;;;34.50;29.80;;;;;;20661;6878;117237;-89
2022/08/26 12:00:00;;;;;;;5.10;4.15;;;34.30;28.90;;;;;;20646;6878;117491;-89
2022/08/26 12:02:26;;;;;;;4.73;4.33;;;34.10;29.20;;;;;;20641;6878;117668;-89
2022/08/26 12:04:51;;;;;;;4.43;4.03;;;34.10;29.10;;;;;;20483;6878;281038;-89
2022/08/26 12:07:17;;;;;;;7.12;5.03;;;34.50;29.20;;;;;;20460;6878;338924;-89
2022/08/26 12:10:00;;;;;;;5.73;5.03;;;34.50;29.20;;;;;;20646;6878;117475;-89
2022/08/26 12:12:30;;;;;;;7.27;5.13;;;34.50;29.30;;;;;;20633;6878;118895;-89
2022/08/26 12:15:13;;;;;;;4.60;4.17;;;34.30;29.70;;;;;;20631;6878;118110;-89
2022/08/26 12:17:39;;;;;;;6.13;4.47;;;34.30;29.70;;;;;;20640;6878;117795;-87
2022/08/26 12:20:05;;;;;;;6.73;4.87;;;34.30;29.90;;;;;;20673;6878;117522;-89
2022/08/26 12:22:30;;;;;;;7.00;4.85;;;34.20;30.00;;;;;;20418;6877;310755;-89
2022/08/26 12:24:59;;;;;;;5.32;4.82;;;34.40;30.30;;;;;;20449;6878;309264;-88
2022/08/26 12:27:24;;;;;;;7.30;5.17;;;34.70;29.20;;;;;;20662;6878;117592;-89
2022/08/26 12:30:17;;;;;;;6.03;4.50;;;34.70;29.40;;;;;;20658;6878;117801;-89
2022/08/26 12:32:42;;;;;;;4.78;4.40;;;34.60;29.40;;;;;;20451;6878;310162;-90
2022/08/26 12:35:08;;;;;;;5.10;4.63;;;34.90;28.30;;;;;;20445;6878;310689;-89
2022/08/26 12:37:34;;;;;;;4.97;4.50;;;34.80;28.40;;;;;;20653;6878;120158;-89
2022/08/26 12:40:26;;;;;;;4.83;4.40;;;34.70;28.60;;;;;;20653;6878;116606;-89
2022/08/26 12:42:52;;;;;;;5.00;4.60;;;34.40;28.80;;;;;;20440;6878;280944;-89
2022/08/26 12:45:33;;;;;;;5.40;4.90;;;34.40;29.00;;;;;;20659;6878;117593;-89
2022/08/26 12:48:01;;;;;;;6.07;5.00;;;34.30;29.10;;;;;;20663;6878;117969;-88
2022/08/26 12:50:33;;;;;;;6.90;4.95;;;34.00;29.30;;;;;;20408;6878;308874;-89
2022/08/26 12:53:08;;;;;;;5.30;4.80;;;34.10;29.20;;;;;;20655;6878;117489;-88
2022/08/26 12:55:40;;;;;;;5.57;5.07;;;33.90;29.60;;;;;;20663;6878;117864;-89
2022/08/26 12:58:26;;;;;;;5.85;5.15;;;33.70;29.90;;;;;;20450;6878;311092;-89
2022/08/26 13:00:51;;;;;;;6.00;5.57;;;33.80;30.00;;;;;;20446;6878;310717;-89
2022/08/26 13:03:31;;;;;;;6.53;5.60;;;34.00;31.30;;;;;;20448;6878;310481;-89
2022/08/26 13:06:13;;;;;;;8.37;5.77;;;34.10;31.10;;;;;;20428;6878;280415;-89
2022/08/26 13:08:42;;;;;;;7.72;6.05;;;34.10;31.40;;;;;;20458;6878;279476;-89
2022/08/26 13:11:17;;;;;;;7.47;6.40;;;34.10;31.30;;;;;;20437;6878;280917;-89
2022/08/26 13:13:40;;;;;;;8.15;5.57;;;34.00;31.30;;;;;;20438;6878;310142;-89
2022/08/26 13:16:07;;;;;;;7.60;5.63;;;33.60;31.60;;;;;;20665;6878;117529;-89
2022/08/26 13:18:32;;;;;;;7.93;5.93;;;33.60;31.70;;;;;;20439;6878;281669;-89
2022/08/26 13:20:58;;;;;;;6.93;5.97;;;33.40;32.20;;;;;;20461;6878;311606;-89
2022/08/26 13:23:24;;;;;;;7.47;5.47;;;33.40;32.20;;;;;;20658;6878;120002;-89
2022/08/26 13:25:50;;;;;;;7.60;5.73;;;33.10;32.20;;;;;;20659;6878;117781;-89
2022/08/26 13:28:15;;;;;;;7.07;6.03;;;32.70;32.70;;;;;;20432;6878;309401;-90
2022/08/26 13:30:42;;;;;;;7.37;6.10;;;32.70;32.60;;;;;;20663;6878;118040;-89